createdAt,value
2016-03-31T00:00:50.926Z,961.48
2016-03-31T00:01:50.929Z,961.44
2016-03-31T00:02:50.915Z,961.46
2016-03-31T00:03:50.918Z,961.5
2016-03-31T00:04:50.921Z,961.49
2016-03-31T00:05:50.924Z,961.46
2016-03-31T00:06:50.926Z,961.5
2016-03-31T00:07:50.928Z,961.53
2016-03-31T00:08:50.916Z,961.6
2016-03-31T00:09:50.919Z,961.62
2016-03-31T00:10:50.922Z,961.62
2016-03-31T00:11:50.924Z,961.57
2016-03-31T00:12:50.927Z,961.56
2016-03-31T00:13:50.930Z,961.5
2016-03-31T00:14:50.933Z,961.47
2016-03-31T00:15:50.920Z,961.57
2016-03-31T00:16:50.922Z,961.56
2016-03-31T00:17:50.922Z,961.56
2016-03-31T00:18:50.926Z,961.56
2016-03-31T00:19:50.933Z,961.51
2016-03-31T00:20:50.925Z,961.52
2016-03-31T00:21:50.928Z,961.53
2016-03-31T00:22:50.930Z,961.61
2016-03-31T00:23:50.917Z,961.64
2016-03-31T00:24:50.936Z,961.65
2016-03-31T00:25:50.923Z,961.64
2016-03-31T00:26:50.926Z,961.58
2016-03-31T00:27:50.929Z,961.52
2016-03-31T00:28:50.931Z,961.51
2016-03-31T00:29:50.934Z,961.58
2016-03-31T00:30:50.926Z,961.6
2016-03-31T00:31:50.928Z,961.59
2016-03-31T00:32:50.919Z,961.52
2016-03-31T00:33:50.921Z,961.52
2016-03-31T00:34:50.923Z,961.53
2016-03-31T00:35:50.926Z,961.5
2016-03-31T00:36:50.929Z,961.5
2016-03-31T00:37:50.932Z,961.47
2016-03-31T00:38:50.919Z,961.51
2016-03-31T00:39:50.921Z,961.47
2016-03-31T00:40:50.925Z,961.4
2016-03-31T00:41:50.927Z,961.39
2016-03-31T00:42:50.930Z,961.44
2016-03-31T00:43:50.933Z,961.44
2016-03-31T00:44:50.919Z,961.45
2016-03-31T00:45:50.922Z,961.48
2016-03-31T00:46:50.925Z,961.47
2016-03-31T00:47:50.927Z,961.48
2016-03-31T00:48:50.930Z,961.46
2016-03-31T00:49:50.933Z,961.4
2016-03-31T00:50:50.935Z,961.41
2016-03-31T00:51:50.923Z,961.37
2016-03-31T00:52:50.925Z,961.36
2016-03-31T00:53:50.928Z,961.41
2016-03-31T00:54:50.930Z,961.39
2016-03-31T00:55:50.933Z,961.46
2016-03-31T00:56:50.920Z,961.51
2016-03-31T00:57:50.923Z,961.5
2016-03-31T00:58:50.941Z,961.52
2016-03-31T00:59:50.929Z,961.51
2016-03-31T01:00:50.931Z,961.47
2016-03-31T01:01:50.934Z,961.43
2016-03-31T01:02:50.937Z,961.38
2016-03-31T01:03:50.923Z,961.38
2016-03-31T01:04:50.926Z,961.47
2016-03-31T01:05:50.929Z,961.53
2016-03-31T01:06:50.931Z,961.58
2016-03-31T01:07:50.934Z,961.56
2016-03-31T01:08:50.937Z,961.51
2016-03-31T01:09:50.939Z,961.45
2016-03-31T01:10:50.927Z,961.41
2016-03-31T01:11:50.929Z,961.39
2016-03-31T01:12:50.932Z,961.44
2016-03-31T01:13:50.934Z,961.49
2016-03-31T01:14:50.937Z,961.47
2016-03-31T01:15:50.925Z,961.45
2016-03-31T01:16:50.927Z,961.46
2016-03-31T01:17:50.930Z,961.45
2016-03-31T01:18:50.933Z,961.39
2016-03-31T01:19:50.935Z,961.37
2016-03-31T01:20:50.938Z,961.31
2016-03-31T01:21:50.940Z,961.31
2016-03-31T01:22:50.943Z,961.29
2016-03-31T01:23:50.930Z,961.3
2016-03-31T01:24:50.933Z,961.26
2016-03-31T01:25:50.935Z,961.33
2016-03-31T01:26:50.938Z,961.29
2016-03-31T01:27:50.940Z,961.34
2016-03-31T01:28:50.943Z,961.33
2016-03-31T01:29:50.931Z,961.36
2016-03-31T01:30:50.933Z,961.31
2016-03-31T01:31:50.936Z,961.27
2016-03-31T01:32:50.939Z,961.23
2016-03-31T01:33:50.942Z,961.23
2016-03-31T01:34:50.959Z,961.16
2016-03-31T01:35:50.947Z,961.15
2016-03-31T01:36:50.934Z,961.2
2016-03-31T01:37:50.936Z,961.19
2016-03-31T01:38:50.939Z,961.21
2016-03-31T01:39:50.943Z,961.21
2016-03-31T01:40:50.945Z,961.18
2016-03-31T01:41:50.931Z,961.21
2016-03-31T01:42:50.935Z,961.21
2016-03-31T01:43:50.937Z,961.19
2016-03-31T01:44:50.940Z,961.16
2016-03-31T01:45:50.942Z,961.14
2016-03-31T01:46:50.930Z,961.11
2016-03-31T01:47:50.933Z,961.11
2016-03-31T01:48:50.935Z,961.12
2016-03-31T01:49:50.938Z,961.09
2016-03-31T01:50:50.941Z,961.16
2016-03-31T01:51:50.943Z,961.15
2016-03-31T01:52:50.930Z,961.15
2016-03-31T01:53:50.933Z,961.19
2016-03-31T01:54:50.935Z,961.17
2016-03-31T01:55:50.938Z,961.12
2016-03-31T01:56:50.941Z,961.11
2016-03-31T01:57:50.943Z,961.07
2016-03-31T01:58:50.930Z,961.04
2016-03-31T01:59:50.933Z,961.09
2016-03-31T02:00:50.936Z,961.05
2016-03-31T02:01:50.938Z,961.09
2016-03-31T02:02:50.941Z,961.14
2016-03-31T02:03:50.944Z,961.09
2016-03-31T02:04:50.946Z,961.1
2016-03-31T02:05:50.949Z,961.12
2016-03-31T02:06:50.937Z,961.09
2016-03-31T02:07:50.932Z,961.07
2016-03-31T02:08:50.935Z,961.05
2016-03-31T02:09:50.938Z,961.03
2016-03-31T02:10:50.940Z,961.04
2016-03-31T02:11:50.944Z,961.01
2016-03-31T02:12:50.946Z,961.01
2016-03-31T02:13:50.949Z,961.01
2016-03-31T02:14:50.935Z,961.02
2016-03-31T02:15:50.938Z,961.05
2016-03-31T02:16:50.940Z,961.04
2016-03-31T02:17:50.931Z,961.05
2016-03-31T02:18:50.934Z,961
2016-03-31T02:19:50.937Z,960.96
2016-03-31T02:20:50.940Z,960.95
2016-03-31T02:21:50.942Z,960.89
2016-03-31T02:22:50.945Z,960.96
2016-03-31T02:23:50.931Z,960.94
2016-03-31T02:24:50.934Z,960.93
2016-03-31T02:25:50.936Z,960.99
2016-03-31T02:26:50.939Z,961.01
2016-03-31T02:27:50.942Z,961.02
2016-03-31T02:28:50.944Z,960.98
2016-03-31T02:29:50.931Z,961
2016-03-31T02:30:50.934Z,961.04
2016-03-31T02:31:50.936Z,960.98
2016-03-31T02:32:50.939Z,961.01
2016-03-31T02:33:50.942Z,960.99
2016-03-31T02:34:50.945Z,960.99
2016-03-31T02:35:50.947Z,960.95
2016-03-31T02:36:50.935Z,960.93
2016-03-31T02:37:50.938Z,960.94
2016-03-31T02:38:50.940Z,960.93
2016-03-31T02:39:50.943Z,960.92
2016-03-31T02:40:50.930Z,960.96
2016-03-31T02:41:50.932Z,960.97
2016-03-31T02:42:50.936Z,960.94
2016-03-31T02:43:50.938Z,960.94
2016-03-31T02:44:50.941Z,960.91
2016-03-31T02:45:50.943Z,960.94
2016-03-31T02:46:50.947Z,960.91
2016-03-31T02:47:50.934Z,960.89
2016-03-31T02:48:50.936Z,960.87
2016-03-31T02:49:50.939Z,960.85
2016-03-31T02:50:50.942Z,960.88
2016-03-31T02:51:50.959Z,960.83
2016-03-31T02:52:50.932Z,960.83
2016-03-31T02:53:50.934Z,960.86
2016-03-31T02:54:50.937Z,960.88
2016-03-31T02:55:50.939Z,960.84
2016-03-31T02:56:50.942Z,960.82
2016-03-31T02:57:50.945Z,960.84
2016-03-31T02:58:50.947Z,960.8
2016-03-31T02:59:50.934Z,960.78
2016-03-31T03:00:50.937Z,960.76
2016-03-31T03:01:50.939Z,960.75
2016-03-31T03:02:50.943Z,960.7
2016-03-31T03:03:50.945Z,960.7
2016-03-31T03:04:50.948Z,960.67
2016-03-31T03:05:50.950Z,960.63
2016-03-31T03:06:50.938Z,960.72
2016-03-31T03:07:50.993Z,960.71
2016-03-31T03:08:50.953Z,960.64
2016-03-31T03:09:50.925Z,960.59
2016-03-31T03:10:50.911Z,960.6
2016-03-31T03:11:50.915Z,960.6
2016-03-31T03:12:50.917Z,960.57
2016-03-31T03:13:50.920Z,960.57
2016-03-31T03:14:50.923Z,960.51
2016-03-31T03:15:50.925Z,960.48
2016-03-31T03:16:50.913Z,960.38
2016-03-31T03:17:50.916Z,960.36
2016-03-31T03:18:50.919Z,960.38
2016-03-31T03:19:50.921Z,960.33
2016-03-31T03:20:50.923Z,960.36
2016-03-31T03:21:50.927Z,960.35
2016-03-31T03:22:50.929Z,960.42
2016-03-31T03:23:50.916Z,960.41
2016-03-31T03:24:50.919Z,960.43
2016-03-31T03:25:50.921Z,960.43
2016-03-31T03:26:50.924Z,960.44
2016-03-31T03:27:50.911Z,960.46
2016-03-31T03:28:50.915Z,960.42
2016-03-31T03:29:50.917Z,960.44
2016-03-31T03:30:50.919Z,960.46
2016-03-31T03:31:50.923Z,960.48
2016-03-31T03:32:50.925Z,960.4
2016-03-31T03:33:50.928Z,960.41
2016-03-31T03:34:50.915Z,960.42
2016-03-31T03:35:50.917Z,960.4
2016-03-31T03:36:50.919Z,960.38
2016-03-31T03:37:50.922Z,960.39
2016-03-31T03:38:50.909Z,960.42
2016-03-31T03:39:50.911Z,960.47
2016-03-31T03:40:50.914Z,960.43
2016-03-31T03:41:50.917Z,960.4
2016-03-31T03:42:50.920Z,960.38
2016-03-31T03:43:50.922Z,960.37
2016-03-31T03:44:50.926Z,960.33
2016-03-31T03:45:50.913Z,960.33
2016-03-31T03:46:50.915Z,960.37
2016-03-31T03:47:50.919Z,960.41
2016-03-31T03:48:50.921Z,960.37
2016-03-31T03:49:50.924Z,960.36
2016-03-31T03:50:50.910Z,960.31
2016-03-31T03:51:50.913Z,960.27
2016-03-31T03:52:50.916Z,960.24
2016-03-31T03:53:50.919Z,960.24
2016-03-31T03:54:50.922Z,960.25
2016-03-31T03:55:50.908Z,960.25
2016-03-31T03:56:50.910Z,960.31
2016-03-31T03:57:50.914Z,960.31
2016-03-31T03:58:50.916Z,960.25
2016-03-31T03:59:50.919Z,960.22
2016-03-31T04:00:50.906Z,960.21
2016-03-31T04:01:50.909Z,960.09
2016-03-31T04:02:50.911Z,960.07
2016-03-31T04:03:50.914Z,960.06
2016-03-31T04:04:50.917Z,960.05
2016-03-31T04:05:50.920Z,960.06
2016-03-31T04:06:50.906Z,960.02
2016-03-31T04:07:50.909Z,959.99
2016-03-31T04:08:50.912Z,960
2016-03-31T04:09:50.914Z,959.97
2016-03-31T04:10:50.917Z,959.93
2016-03-31T04:11:50.944Z,959.92
2016-03-31T04:12:50.992Z,959.89
2016-03-31T04:13:50.896Z,959.85
2016-03-31T04:14:50.888Z,959.9
2016-03-31T04:15:50.959Z,959.89
2016-03-31T04:16:50.883Z,959.98
2016-03-31T04:17:50.886Z,960.03
2016-03-31T04:18:50.888Z,960.01
2016-03-31T04:19:50.892Z,960.03
2016-03-31T04:20:50.879Z,959.98
2016-03-31T04:21:50.881Z,959.92
2016-03-31T04:22:50.884Z,959.91
2016-03-31T04:23:50.887Z,959.9
2016-03-31T04:24:50.874Z,959.98
2016-03-31T04:25:50.892Z,960.01
2016-03-31T04:26:50.948Z,960.03
2016-03-31T04:27:51.002Z,960.07
2016-03-31T04:28:51.058Z,960.08
2016-03-31T04:29:51.113Z,960.05
2016-03-31T04:30:51.157Z,959.98
2016-03-31T04:31:51.163Z,959.93
2016-03-31T04:32:51.185Z,959.89
2016-03-31T04:33:51.206Z,959.95
2016-03-31T04:34:51.228Z,959.93
2016-03-31T04:35:51.246Z,959.89
2016-03-31T04:36:51.239Z,959.93
2016-03-31T04:37:51.248Z,960.02
2016-03-31T04:38:51.257Z,960.07
2016-03-31T04:39:51.266Z,960.11
2016-03-31T04:40:51.274Z,960.1
2016-03-31T04:41:51.279Z,960.05
2016-03-31T04:42:51.269Z,960.04
2016-03-31T04:43:51.273Z,959.97
2016-03-31T04:44:51.278Z,959.97
2016-03-31T04:45:51.283Z,959.92
2016-03-31T04:46:51.287Z,960.02
2016-03-31T04:47:51.290Z,960.03
2016-03-31T04:48:51.280Z,960.12
2016-03-31T04:49:51.283Z,960.1
2016-03-31T04:50:51.287Z,960.08
2016-03-31T04:51:51.290Z,960.02
2016-03-31T04:52:51.277Z,959.98
2016-03-31T04:53:51.280Z,959.95
2016-03-31T04:54:51.283Z,959.97
2016-03-31T04:55:51.286Z,959.99
2016-03-31T04:56:51.289Z,959.99
2016-03-31T04:57:51.292Z,960.02
2016-03-31T04:58:51.295Z,960.03
2016-03-31T04:59:51.281Z,960.04
2016-03-31T05:00:51.284Z,960.04
2016-03-31T05:01:51.287Z,960.03
2016-03-31T05:02:51.290Z,959.97
2016-03-31T05:03:51.278Z,960.01
2016-03-31T05:04:51.280Z,960.04
2016-03-31T05:05:51.283Z,960.08
2016-03-31T05:06:51.286Z,960.1
2016-03-31T05:07:51.289Z,960.13
2016-03-31T05:08:51.291Z,960.17
2016-03-31T05:09:51.278Z,960.18
2016-03-31T05:10:51.280Z,960.22
2016-03-31T05:11:51.283Z,960.23
2016-03-31T05:12:51.286Z,960.2
2016-03-31T05:13:51.288Z,960.21
2016-03-31T05:14:51.276Z,960.25
2016-03-31T05:15:51.279Z,960.31
2016-03-31T05:16:51.281Z,960.29
2016-03-31T05:17:51.300Z,960.31
2016-03-31T05:18:51.287Z,960.27
2016-03-31T05:19:51.273Z,960.24
2016-03-31T05:20:51.277Z,960.32
2016-03-31T05:21:51.279Z,960.35
2016-03-31T05:22:51.282Z,960.32
2016-03-31T05:23:51.284Z,960.3
2016-03-31T05:24:51.287Z,960.28
2016-03-31T05:25:51.274Z,960.32
2016-03-31T05:26:51.277Z,960.29
2016-03-31T05:27:51.280Z,960.25
2016-03-31T05:28:51.282Z,960.21
2016-03-31T05:29:51.284Z,960.18
2016-03-31T05:30:51.273Z,960.19
2016-03-31T05:31:51.275Z,960.17
2016-03-31T05:32:51.277Z,960.16
2016-03-31T05:33:51.280Z,960.1
2016-03-31T05:34:51.283Z,960.07
2016-03-31T05:35:51.285Z,960.04
2016-03-31T05:36:51.288Z,959.99
2016-03-31T05:37:51.275Z,960.01
2016-03-31T05:38:51.277Z,960.07
2016-03-31T05:39:51.281Z,960.1
2016-03-31T05:40:51.283Z,960.11
2016-03-31T05:41:51.270Z,960.17
2016-03-31T05:42:51.272Z,960.2
2016-03-31T05:43:51.275Z,960.15
2016-03-31T05:44:51.277Z,960.1
2016-03-31T05:45:51.281Z,960.11
2016-03-31T05:46:51.283Z,960.18
2016-03-31T05:47:51.271Z,960.19
2016-03-31T05:48:51.273Z,960.24
2016-03-31T05:49:51.277Z,960.28
2016-03-31T05:50:51.279Z,960.31
2016-03-31T05:51:51.281Z,960.28
2016-03-31T05:52:51.285Z,960.28
2016-03-31T05:53:51.271Z,960.27
2016-03-31T05:54:51.274Z,960.24
2016-03-31T05:55:51.277Z,960.28
2016-03-31T05:56:51.279Z,960.23
2016-03-31T05:57:51.282Z,960.19
2016-03-31T05:58:51.269Z,960.2
2016-03-31T05:59:51.272Z,960.23
2016-03-31T06:00:51.274Z,960.29
2016-03-31T06:01:51.278Z,960.31
2016-03-31T06:02:51.280Z,960.31
2016-03-31T06:03:51.283Z,960.28
2016-03-31T06:04:51.286Z,960.29
2016-03-31T06:05:51.272Z,960.27
2016-03-31T06:06:51.275Z,960.24
2016-03-31T06:07:51.278Z,960.21
2016-03-31T06:08:51.280Z,960.21
2016-03-31T06:09:51.283Z,960.2
2016-03-31T06:10:51.270Z,960.18
2016-03-31T06:11:51.289Z,960.22
2016-03-31T06:12:51.275Z,960.21
2016-03-31T06:13:51.294Z,960.22
2016-03-31T06:14:51.281Z,960.25
2016-03-31T06:15:51.283Z,960.26
2016-03-31T06:16:51.286Z,960.2
2016-03-31T06:17:51.289Z,960.24
2016-03-31T06:18:51.291Z,960.18
2016-03-31T06:19:51.294Z,960.21
2016-03-31T06:20:51.296Z,960.23
2016-03-31T06:21:51.299Z,960.2
2016-03-31T06:22:51.302Z,960.18
2016-03-31T06:23:51.305Z,960.17
2016-03-31T06:24:51.307Z,960.19
2016-03-31T06:25:51.295Z,960.15
2016-03-31T06:26:51.298Z,960.16
2016-03-31T06:27:51.301Z,960.17
2016-03-31T06:28:51.318Z,960.15
2016-03-31T06:29:51.306Z,960.15
2016-03-31T06:30:51.309Z,960.17
2016-03-31T06:31:51.311Z,960.25
2016-03-31T06:32:51.329Z,960.23
2016-03-31T06:33:51.316Z,960.24
2016-03-31T06:34:51.335Z,960.23
2016-03-31T06:35:51.337Z,960.21
2016-03-31T06:36:51.339Z,960.26
2016-03-31T06:37:51.343Z,960.25
2016-03-31T06:38:51.345Z,960.29
2016-03-31T06:39:51.348Z,960.25
2016-03-31T06:40:51.351Z,960.32
2016-03-31T06:41:51.353Z,960.3
2016-03-31T06:42:51.356Z,960.37
2016-03-31T06:43:51.358Z,960.33
2016-03-31T06:44:51.361Z,960.39
2016-03-31T06:45:51.364Z,960.33
2016-03-31T06:46:51.382Z,960.35
2016-03-31T06:47:51.386Z,960.3
2016-03-31T06:48:51.388Z,960.36
2016-03-31T06:49:51.390Z,960.35
2016-03-31T06:50:51.394Z,960.36
2016-03-31T06:51:51.412Z,960.38
2016-03-31T06:52:51.398Z,960.41
2016-03-31T06:53:51.418Z,960.39
2016-03-31T06:54:51.420Z,960.37
2016-03-31T06:55:51.423Z,960.28
2016-03-31T06:56:51.426Z,960.33
2016-03-31T06:57:51.428Z,960.32
2016-03-31T06:58:51.462Z,960.34
2016-03-31T06:59:51.526Z,960.28
2016-03-31T07:00:51.451Z,960.29
2016-03-31T07:01:51.454Z,960.24
2016-03-31T07:02:51.472Z,960.23
2016-03-31T07:03:51.460Z,960.28
2016-03-31T07:04:51.462Z,960.25
2016-03-31T07:05:51.480Z,960.23
2016-03-31T07:06:51.484Z,960.2
2016-03-31T07:07:51.491Z,960.21
2016-03-31T07:08:51.494Z,960.21
2016-03-31T07:09:51.496Z,960.19
2016-03-31T07:10:51.514Z,960.18
2016-03-31T07:11:51.517Z,960.21
2016-03-31T07:12:51.519Z,960.18
2016-03-31T07:13:51.522Z,960.17
2016-03-31T07:14:51.525Z,960.13
2016-03-31T07:15:51.543Z,960.12
2016-03-31T07:16:51.547Z,960.11
2016-03-31T07:17:51.549Z,960.16
2016-03-31T07:18:51.551Z,960.14
2016-03-31T07:19:51.571Z,960.1
2016-03-31T07:20:51.573Z,960.08
2016-03-31T07:21:51.575Z,960.09
2016-03-31T07:22:51.578Z,960.1
2016-03-31T07:23:51.597Z,960.1
2016-03-31T07:24:51.599Z,960.07
2016-03-31T07:25:51.601Z,959.97
2016-03-31T07:27:51.623Z,959.93
2016-03-31T07:28:51.625Z,959.94
2016-03-31T07:29:51.628Z,959.94
2016-03-31T07:30:51.631Z,959.95
2016-03-31T07:31:51.648Z,959.96
2016-03-31T07:32:51.651Z,960.01
2016-03-31T07:33:51.654Z,960
2016-03-31T07:34:51.657Z,959.97
2016-03-31T07:35:51.675Z,959.99
2016-03-31T07:36:51.678Z,959.99
2016-03-31T07:37:51.681Z,960
2016-03-31T07:38:51.699Z,959.99
2016-03-31T07:39:51.702Z,959.91
2016-03-31T07:40:51.705Z,959.93
2016-03-31T07:41:51.707Z,959.93
2016-03-31T07:42:51.725Z,959.93
2016-03-31T07:43:51.728Z,959.92
2016-03-31T07:44:51.731Z,959.92
2016-03-31T07:45:51.749Z,959.92
2016-03-31T07:46:51.752Z,959.92
2016-03-31T07:47:51.754Z,959.93
2016-03-31T07:48:51.758Z,959.95
2016-03-31T07:49:51.776Z,959.97
2016-03-31T07:50:51.779Z,960
2016-03-31T07:51:51.782Z,959.97
2016-03-31T07:52:51.799Z,959.91
2016-03-31T07:53:51.802Z,959.9
2016-03-31T07:54:51.804Z,959.84
2016-03-31T07:55:51.807Z,959.79
2016-03-31T07:56:51.826Z,959.76
2016-03-31T07:57:51.828Z,959.79
2016-03-31T07:58:51.831Z,959.8
2016-03-31T07:59:51.849Z,959.75
2016-03-31T08:00:51.852Z,959.77
2016-03-31T08:01:51.854Z,959.79
2016-03-31T08:02:51.873Z,959.75
2016-03-31T08:03:51.875Z,959.77
2016-03-31T08:04:51.878Z,959.77
2016-03-31T08:05:51.881Z,959.8
2016-03-31T08:06:51.884Z,959.78
2016-03-31T08:07:51.903Z,959.78
2016-03-31T08:08:51.905Z,959.74
2016-03-31T08:09:51.908Z,959.75
2016-03-31T08:10:51.926Z,959.76
2016-03-31T08:11:51.929Z,959.74
2016-03-31T08:12:51.931Z,959.77
2016-03-31T08:13:51.934Z,959.75
2016-03-31T08:14:51.952Z,959.73
2016-03-31T08:15:51.955Z,959.71
2016-03-31T08:16:51.973Z,959.67
2016-03-31T08:17:51.977Z,959.66
2016-03-31T08:18:51.979Z,959.63
2016-03-31T08:19:51.997Z,959.62
2016-03-31T08:20:51.999Z,959.6
2016-03-31T08:21:52.002Z,959.64
2016-03-31T08:22:52.005Z,959.58
2016-03-31T08:23:52.007Z,959.5
2016-03-31T08:24:52.026Z,959.47
2016-03-31T08:25:52.028Z,959.45
2016-03-31T08:26:52.031Z,959.49
2016-03-31T08:27:52.049Z,959.51
2016-03-31T08:28:52.051Z,959.47
2016-03-31T08:29:52.055Z,959.46
2016-03-31T08:30:52.057Z,959.45
2016-03-31T08:31:52.076Z,959.41
2016-03-31T08:32:52.078Z,959.44
2016-03-31T08:33:52.097Z,959.37
2016-03-31T08:34:52.084Z,959.34
2016-03-31T08:35:52.103Z,959.3
2016-03-31T08:36:52.105Z,959.31
2016-03-31T08:37:52.108Z,959.28
2016-03-31T08:38:52.126Z,959.28
2016-03-31T08:39:52.113Z,959.29
2016-03-31T08:40:52.117Z,959.3
2016-03-31T08:41:52.134Z,959.28
2016-03-31T08:42:52.137Z,959.27
2016-03-31T08:43:52.140Z,959.28
2016-03-31T08:44:52.142Z,959.26
2016-03-31T08:45:52.161Z,959.28
2016-03-31T08:46:52.164Z,959.25
2016-03-31T08:47:52.182Z,959.22
2016-03-31T08:48:52.169Z,959.23
2016-03-31T08:49:52.172Z,959.18
2016-03-31T08:50:52.190Z,959.2
2016-03-31T08:51:52.238Z,959.18
2016-03-31T08:52:52.195Z,959.18
2016-03-31T08:53:52.198Z,959.17
2016-03-31T08:54:52.216Z,959.15
2016-03-31T08:55:52.218Z,959.16
2016-03-31T08:56:52.221Z,959.13
2016-03-31T08:57:52.224Z,959.14
2016-03-31T08:58:52.243Z,959.14
2016-03-31T08:59:52.229Z,959.1
2016-03-31T09:00:52.248Z,959.08
2016-03-31T09:01:52.251Z,959.01
2016-03-31T09:02:52.254Z,958.99
2016-03-31T09:03:52.256Z,959.03
2016-03-31T09:04:52.273Z,959.01
2016-03-31T09:05:52.277Z,958.98
2016-03-31T09:06:52.279Z,958.96
2016-03-31T09:07:52.281Z,959.01
2016-03-31T09:08:52.284Z,958.97
2016-03-31T09:09:52.287Z,959
2016-03-31T09:10:52.290Z,959.05
2016-03-31T09:11:52.308Z,959.04
2016-03-31T09:12:52.311Z,959.02
2016-03-31T09:13:52.314Z,958.98
2016-03-31T09:14:52.316Z,959
2016-03-31T09:15:52.319Z,958.99
2016-03-31T09:16:52.322Z,958.98
2016-03-31T09:17:52.341Z,958.98
2016-03-31T09:18:52.328Z,958.93
2016-03-31T09:19:52.346Z,958.97
2016-03-31T09:20:52.349Z,958.96
2016-03-31T09:21:52.352Z,958.97
2016-03-31T09:22:52.354Z,958.97
2016-03-31T09:23:52.357Z,958.95
2016-03-31T09:24:52.359Z,958.92
2016-03-31T09:25:52.378Z,958.89
2016-03-31T09:26:52.380Z,958.88
2016-03-31T09:27:52.383Z,958.82
2016-03-31T09:28:52.386Z,958.81
2016-03-31T09:29:52.388Z,958.8
2016-03-31T09:30:52.391Z,958.82
2016-03-31T09:31:52.409Z,958.83
2016-03-31T09:32:52.396Z,958.82
2016-03-31T09:33:52.415Z,958.85
2016-03-31T09:34:52.418Z,958.86
2016-03-31T09:35:52.420Z,958.83
2016-03-31T09:36:52.423Z,958.81
2016-03-31T09:37:52.426Z,958.78
2016-03-31T09:38:52.428Z,958.72
2016-03-31T09:39:52.431Z,958.78
2016-03-31T09:40:52.434Z,958.77
2016-03-31T09:41:52.437Z,958.72
2016-03-31T09:42:52.439Z,958.67
2016-03-31T09:43:52.442Z,958.65
2016-03-31T09:44:52.461Z,958.61
2016-03-31T09:45:52.464Z,958.54
2016-03-31T09:46:52.466Z,958.52
2016-03-31T09:47:52.468Z,958.47
2016-03-31T09:48:52.471Z,958.46
2016-03-31T09:49:52.473Z,958.5
2016-03-31T09:50:52.476Z,958.47
2016-03-31T09:51:52.479Z,958.44
2016-03-31T09:52:52.482Z,958.46
2016-03-31T09:53:52.485Z,958.48
2016-03-31T09:54:52.503Z,958.44
2016-03-31T09:55:52.505Z,958.46
2016-03-31T09:56:52.508Z,958.4
2016-03-31T09:57:52.511Z,958.44
2016-03-31T09:58:52.529Z,958.39
2016-03-31T09:59:52.516Z,958.38
2016-03-31T10:00:52.518Z,958.38
2016-03-31T10:01:52.521Z,958.38
2016-03-31T10:02:52.524Z,958.36
2016-03-31T10:03:52.527Z,958.32
2016-03-31T10:04:52.530Z,958.28
2016-03-31T10:05:52.532Z,958.25
2016-03-31T10:06:52.534Z,958.23
2016-03-31T10:07:52.553Z,958.25
2016-03-31T10:08:52.556Z,958.24
2016-03-31T10:09:52.559Z,958.18
2016-03-31T10:10:52.577Z,958.18
2016-03-31T10:11:52.564Z,958.2
2016-03-31T10:12:52.566Z,958.2
2016-03-31T10:13:52.569Z,958.21
2016-03-31T10:14:52.572Z,958.19
2016-03-31T10:15:52.575Z,958.16
2016-03-31T10:16:52.578Z,958.22
2016-03-31T10:17:52.580Z,958.24
2016-03-31T10:18:52.598Z,958.19
2016-03-31T10:19:52.601Z,958.23
2016-03-31T10:20:52.603Z,958.24
2016-03-31T10:21:52.607Z,958.2
2016-03-31T10:22:52.609Z,958.19
2016-03-31T10:23:52.612Z,958.18
2016-03-31T10:24:52.614Z,958.19
2016-03-31T10:25:52.617Z,958.14
2016-03-31T10:26:52.620Z,958.12
2016-03-31T10:27:52.622Z,958.09
2016-03-31T10:28:52.625Z,958.06
2016-03-31T10:29:52.627Z,958.01
2016-03-31T10:30:52.646Z,957.97
2016-03-31T10:31:52.633Z,957.99
2016-03-31T10:32:52.636Z,957.98
2016-03-31T10:33:52.638Z,957.96
2016-03-31T10:34:52.657Z,957.99
2016-03-31T10:35:52.659Z,957.91
2016-03-31T10:36:52.662Z,957.92
2016-03-31T10:37:52.665Z,957.89
2016-03-31T10:38:52.668Z,957.95
2016-03-31T10:39:52.671Z,957.9
2016-03-31T10:40:52.673Z,957.91
2016-03-31T10:41:52.676Z,957.91
2016-03-31T10:42:52.678Z,957.91
2016-03-31T10:43:52.682Z,957.88
2016-03-31T10:44:52.684Z,957.86
2016-03-31T10:45:52.687Z,957.82
2016-03-31T10:46:52.689Z,957.79
2016-03-31T10:47:52.692Z,957.79
2016-03-31T10:48:52.711Z,957.85
2016-03-31T10:49:52.697Z,957.85
2016-03-31T10:50:52.700Z,957.84
2016-03-31T10:51:52.703Z,957.82
2016-03-31T10:52:52.706Z,957.82
2016-03-31T10:53:52.724Z,957.83
2016-03-31T10:54:52.727Z,957.82
2016-03-31T10:55:52.729Z,957.79
2016-03-31T10:56:52.732Z,957.73
2016-03-31T10:57:52.735Z,957.69
2016-03-31T10:58:52.738Z,957.69
2016-03-31T10:59:52.741Z,957.72
2016-03-31T11:00:52.743Z,957.71
2016-03-31T11:01:52.746Z,957.65
2016-03-31T11:02:52.749Z,957.63
2016-03-31T11:03:52.751Z,957.62
2016-03-31T11:04:52.754Z,957.57
2016-03-31T11:05:52.757Z,957.59
2016-03-31T11:06:52.759Z,957.57
2016-03-31T11:07:52.777Z,957.57
2016-03-31T11:08:52.764Z,957.59
2016-03-31T11:09:52.782Z,957.59
2016-03-31T11:10:52.770Z,957.56
2016-03-31T11:11:52.773Z,957.56
2016-03-31T11:12:52.775Z,957.56
2016-03-31T11:13:52.778Z,957.55
2016-03-31T11:14:52.796Z,957.53
2016-03-31T11:15:52.799Z,957.46
2016-03-31T11:16:52.801Z,957.45
2016-03-31T11:17:52.804Z,957.44
2016-03-31T11:18:52.807Z,957.44
2016-03-31T11:19:52.809Z,957.39
2016-03-31T11:20:52.812Z,957.37
2016-03-31T11:21:52.815Z,957.38
2016-03-31T11:22:52.817Z,957.38
2016-03-31T11:23:52.820Z,957.4
2016-03-31T11:24:52.823Z,957.38
2016-03-31T11:25:52.826Z,957.38
2016-03-31T11:26:52.828Z,957.37
2016-03-31T11:27:52.831Z,957.32
2016-03-31T11:28:52.833Z,957.3
2016-03-31T11:29:52.836Z,957.3
2016-03-31T11:31:03.760Z,957.32
2016-03-31T11:31:52.841Z,957.31
2016-03-31T11:32:52.844Z,957.31
2016-03-31T11:33:52.846Z,957.28
2016-03-31T11:34:52.850Z,957.27
2016-03-31T11:35:52.868Z,957.24
2016-03-31T11:36:52.870Z,957.22
2016-03-31T11:37:52.873Z,957.21
2016-03-31T11:38:52.876Z,957.23
2016-03-31T11:39:53.223Z,957.22
2016-03-31T11:40:52.882Z,957.21
2016-03-31T11:41:52.884Z,957.25
2016-03-31T11:42:52.887Z,957.23
2016-03-31T11:43:52.889Z,957.22
2016-03-31T11:44:52.892Z,957.22
2016-03-31T11:45:52.895Z,957.22
2016-03-31T11:46:52.898Z,957.18
2016-03-31T11:47:52.900Z,957.17
2016-03-31T11:48:52.903Z,957.2
2016-03-31T11:49:52.905Z,957.16
2016-03-31T11:50:52.908Z,957.18
2016-03-31T11:51:52.911Z,957.19
2016-03-31T11:52:52.914Z,957.18
2016-03-31T11:53:52.917Z,957.14
2016-03-31T11:54:52.919Z,957.11
2016-03-31T11:55:52.938Z,957.11
2016-03-31T11:56:52.940Z,957.13
2016-03-31T11:57:52.943Z,957.1
2016-03-31T11:58:52.946Z,957.1
2016-03-31T11:59:52.948Z,957.09
2016-03-31T12:00:52.952Z,957.09
2016-03-31T12:01:52.954Z,957.14
2016-03-31T12:02:52.957Z,957.14
2016-03-31T12:03:52.960Z,957.09
2016-03-31T12:04:52.963Z,957.09
2016-03-31T12:05:52.965Z,957.01
2016-03-31T12:06:52.968Z,957
2016-03-31T12:07:52.970Z,957.02
2016-03-31T12:08:52.973Z,956.95
2016-03-31T12:09:52.975Z,956.93
2016-03-31T12:10:52.978Z,956.91
2016-03-31T12:11:52.981Z,956.87
2016-03-31T12:12:52.984Z,956.9
2016-03-31T12:13:53.002Z,956.85
2016-03-31T12:14:52.989Z,956.84
2016-03-31T12:15:52.992Z,956.85
2016-03-31T12:16:53.009Z,956.81
2016-03-31T12:17:53.012Z,956.83
2016-03-31T12:18:52.999Z,956.81
2016-03-31T12:19:53.018Z,956.79
2016-03-31T12:20:53.020Z,956.76
2016-03-31T12:21:53.023Z,956.71
2016-03-31T12:22:53.026Z,956.71
2016-03-31T12:23:53.045Z,956.66
2016-03-31T12:24:53.031Z,956.71
2016-03-31T12:25:53.034Z,956.66
2016-03-31T12:26:53.036Z,956.74
2016-03-31T12:27:53.039Z,956.72
2016-03-31T12:28:53.041Z,956.74
2016-03-31T12:29:53.044Z,956.74
2016-03-31T12:30:53.047Z,956.7
2016-03-31T12:31:53.050Z,956.72
2016-03-31T12:32:53.052Z,956.71